createdAt,value
2017-08-09T00:00:27.481Z,76.10
2017-08-09T00:01:27.683Z,76.57
2017-08-09T00:02:27.455Z,76.10
2017-08-09T00:03:27.442Z,76.39
2017-08-09T00:04:27.458Z,76.10
2017-08-09T00:05:27.428Z,76.48
2017-08-09T00:06:27.431Z,76.29
2017-08-09T00:07:27.777Z,76.39
2017-08-09T00:08:27.413Z,76.19
2017-08-09T00:09:27.393Z,76.39
2017-08-09T00:10:27.398Z,75.96
2017-08-09T00:11:27.385Z,75.96
2017-08-09T00:12:27.385Z,76.06
2017-08-09T00:13:27.729Z,76.44
2017-08-09T00:14:27.363Z,76.73
2017-08-09T00:15:27.352Z,76.54
2017-08-09T00:16:27.346Z,76.86
2017-08-09T00:17:27.325Z,77.25
2017-08-09T00:18:27.320Z,76.29
2017-08-09T00:19:27.686Z,76.06
2017-08-09T00:20:27.303Z,75.77
2017-08-09T00:21:27.297Z,76.15
2017-08-09T00:22:27.294Z,76.44
2017-08-09T00:23:27.287Z,76.54
2017-08-09T00:24:27.267Z,76.35
2017-08-09T00:25:27.695Z,76.25
2017-08-09T00:26:27.250Z,76.73
2017-08-09T00:27:27.242Z,76.54
2017-08-09T00:28:27.247Z,77.31
2017-08-09T00:29:27.232Z,76.82
2017-08-09T00:30:27.224Z,76.77
2017-08-09T00:31:27.251Z,76.10
2017-08-09T00:32:27.206Z,76.19
2017-08-09T00:33:27.196Z,76.57
2017-08-09T00:34:27.186Z,76.39
2017-08-09T00:35:27.175Z,76.10
2017-08-09T00:36:27.390Z,75.90
2017-08-09T00:37:27.173Z,76.00
2017-08-09T00:38:27.165Z,76.19
2017-08-09T00:39:27.149Z,75.81
2017-08-09T00:40:27.135Z,76.32
2017-08-09T00:41:27.136Z,76.42
2017-08-09T00:42:27.429Z,76.14
2017-08-09T00:43:27.121Z,75.95
2017-08-09T00:44:27.105Z,75.27
2017-08-09T00:45:27.094Z,75.85
2017-08-09T00:46:27.101Z,75.95
2017-08-09T00:47:27.087Z,76.23
2017-08-09T00:48:27.102Z,76.04
2017-08-09T00:49:27.069Z,75.56
2017-08-09T00:50:27.069Z,75.65
2017-08-09T00:51:27.053Z,75.27
2017-08-09T00:52:27.052Z,75.65
2017-08-09T00:53:27.494Z,75.65
2017-08-09T00:54:27.039Z,75.75
2017-08-09T00:55:27.027Z,75.18
2017-08-09T00:56:27.002Z,75.18
2017-08-09T00:57:26.993Z,74.98
2017-08-09T00:58:26.983Z,74.89
2017-08-09T00:59:27.269Z,74.98
2017-08-09T01:00:26.966Z,74.51
2017-08-09T01:01:26.968Z,74.69
2017-08-09T01:02:26.966Z,74.51
2017-08-09T01:03:26.949Z,74.41
2017-08-09T01:04:26.950Z,74.69
2017-08-09T01:05:27.380Z,74.60
2017-08-09T01:06:26.938Z,74.60
2017-08-09T01:07:26.925Z,74.22
2017-08-09T01:08:26.915Z,74.69
2017-08-09T01:09:26.916Z,74.69
2017-08-09T01:10:26.913Z,74.79
2017-08-09T01:11:27.302Z,74.35
2017-08-09T01:12:26.873Z,74.02
2017-08-09T01:13:26.867Z,74.41
2017-08-09T01:14:26.863Z,74.41
2017-08-09T01:15:26.851Z,74.44
2017-08-09T01:16:26.837Z,74.22
2017-08-09T01:17:27.134Z,74.22
2017-08-09T01:18:26.820Z,73.93
2017-08-09T01:19:26.828Z,74.02
2017-08-09T01:20:26.805Z,74.12
2017-08-09T01:21:26.793Z,74.02
2017-08-09T01:22:26.796Z,74.12
2017-08-09T01:23:26.815Z,74.02
2017-08-09T01:24:26.778Z,74.22
2017-08-09T01:25:26.771Z,73.74
2017-08-09T01:26:27.229Z,73.83
2017-08-09T01:27:26.761Z,74.06
2017-08-09T01:28:26.741Z,73.65
2017-08-09T01:29:26.740Z,74.22
2017-08-09T01:30:26.720Z,74.12
2017-08-09T01:31:26.728Z,74.31
2017-08-09T01:32:27.071Z,74.22
2017-08-09T01:33:26.710Z,74.02
2017-08-09T01:34:26.701Z,74.22
2017-08-09T01:35:26.695Z,74.22
2017-08-09T01:36:26.683Z,74.22
2017-08-09T01:37:26.671Z,74.22
2017-08-09T01:38:26.964Z,74.22
2017-08-09T01:39:26.660Z,74.22
2017-08-09T01:40:26.649Z,74.12
2017-08-09T01:41:26.636Z,73.74
2017-08-09T01:42:26.621Z,73.87
2017-08-09T01:43:26.628Z,73.93
2017-08-09T01:44:26.677Z,73.45
2017-08-09T01:45:26.598Z,73.35
2017-08-09T01:46:26.587Z,73.65
2017-08-09T01:47:26.579Z,73.74
2017-08-09T01:48:27.054Z,73.93
2017-08-09T01:49:26.571Z,73.45
2017-08-09T01:50:26.557Z,73.55
2017-08-09T01:51:26.561Z,73.45
2017-08-09T01:52:26.552Z,73.55
2017-08-09T01:53:26.547Z,73.26
2017-08-09T01:54:26.565Z,73.45
2017-08-09T01:55:26.516Z,73.35
2017-08-09T01:56:26.519Z,73.45
2017-08-09T01:57:26.499Z,73.07
2017-08-09T01:58:26.501Z,72.97
2017-08-09T01:59:26.850Z,72.78
2017-08-09T02:00:26.468Z,72.88
2017-08-09T02:01:26.471Z,72.97
2017-08-09T02:02:26.460Z,73.35
2017-08-09T02:03:26.454Z,72.78
2017-08-09T02:04:26.467Z,73.10
2017-08-09T02:05:28.025Z,73.07
2017-08-09T02:06:26.433Z,73.07
2017-08-09T02:07:26.416Z,72.97
2017-08-09T02:08:26.418Z,72.97
2017-08-09T02:09:26.416Z,73.07
2017-08-09T02:10:26.399Z,72.88
2017-08-09T02:11:26.435Z,72.68
2017-08-09T02:12:26.404Z,73.07
2017-08-09T02:13:26.381Z,73.07
2017-08-09T02:14:26.359Z,73.20
2017-08-09T02:15:26.368Z,72.78
2017-08-09T02:16:26.663Z,72.97
2017-08-09T02:17:26.360Z,72.88
2017-08-09T02:18:26.329Z,72.97
2017-08-09T02:19:26.337Z,72.97
2017-08-09T02:20:26.320Z,72.88
2017-08-09T02:21:26.313Z,72.97
2017-08-09T02:22:26.342Z,73.10
2017-08-09T02:23:26.295Z,73.16
2017-08-09T02:24:26.275Z,73.16
2017-08-09T02:25:26.269Z,73.07
2017-08-09T02:26:26.267Z,72.97
2017-08-09T02:27:26.694Z,73.16
2017-08-09T02:28:26.259Z,72.97
2017-08-09T02:29:26.250Z,73.16
2017-08-09T02:30:26.231Z,72.88
2017-08-09T02:31:26.218Z,72.91
2017-08-09T02:32:26.225Z,72.97
2017-08-09T02:33:26.729Z,72.88
2017-08-09T02:34:26.208Z,72.97
2017-08-09T02:35:26.186Z,72.97
2017-08-09T02:36:26.175Z,73.16
2017-08-09T02:37:26.179Z,73.16
2017-08-09T02:38:26.164Z,72.97
2017-08-09T02:39:26.469Z,73.16
2017-08-09T02:40:26.170Z,72.97
2017-08-09T02:41:26.147Z,73.07
2017-08-09T02:42:26.128Z,72.97
2017-08-09T02:43:26.119Z,72.97
2017-08-09T02:44:26.112Z,72.88
2017-08-09T02:45:26.678Z,72.97
2017-08-09T02:46:26.105Z,72.97
2017-08-09T02:47:26.091Z,72.97
2017-08-09T02:48:26.086Z,73.16
2017-08-09T02:49:26.089Z,73.16
2017-08-09T02:50:26.072Z,73.16
2017-08-09T02:51:26.109Z,72.78
2017-08-09T02:52:26.046Z,72.59
2017-08-09T02:53:26.080Z,72.78
2017-08-09T02:54:26.042Z,72.88
2017-08-09T02:55:26.034Z,72.91
2017-08-09T02:56:26.023Z,73.00
2017-08-09T02:57:26.005Z,73.16
2017-08-09T02:58:26.050Z,73.07
2017-08-09T02:59:26.001Z,73.20
2017-08-09T03:00:25.981Z,73.20
2017-08-09T03:01:25.985Z,73.07
2017-08-09T03:02:25.986Z,73.07
2017-08-09T03:03:26.186Z,73.16
2017-08-09T03:04:25.947Z,73.16
2017-08-09T03:05:25.956Z,73.00
2017-08-09T03:06:25.940Z,73.20
2017-08-09T03:07:25.934Z,73.07
2017-08-09T03:08:25.920Z,72.97
2017-08-09T03:09:25.941Z,72.91
2017-08-09T03:10:25.901Z,73.20
2017-08-09T03:11:25.897Z,73.30
2017-08-09T03:12:25.890Z,72.97
2017-08-09T03:13:26.272Z,72.72
2017-08-09T03:14:25.876Z,72.68
2017-08-09T03:15:25.860Z,72.72
2017-08-09T03:16:25.863Z,72.81
2017-08-09T03:17:25.854Z,72.91
2017-08-09T03:18:25.845Z,72.91
2017-08-09T03:19:26.134Z,72.53
2017-08-09T03:20:25.829Z,72.81
2017-08-09T03:21:25.838Z,72.59
2017-08-09T03:22:25.815Z,72.39
2017-08-09T03:23:25.804Z,72.78
2017-08-09T03:24:25.799Z,72.49
2017-08-09T03:25:26.246Z,72.59
2017-08-09T03:26:25.768Z,72.49
2017-08-09T03:27:25.762Z,72.20
2017-08-09T03:28:25.756Z,72.24
2017-08-09T03:29:25.755Z,72.39
2017-08-09T03:30:25.749Z,72.59
2017-08-09T03:31:26.188Z,72.68
2017-08-09T03:32:25.725Z,73.07
2017-08-09T03:33:25.720Z,72.78
2017-08-09T03:34:25.719Z,72.68
2017-08-09T03:35:25.704Z,72.63
2017-08-09T03:36:25.704Z,72.78
2017-08-09T03:37:26.074Z,72.68
2017-08-09T03:38:25.683Z,72.68
2017-08-09T03:39:25.671Z,72.68
2017-08-09T03:40:25.657Z,73.07
2017-08-09T03:41:25.649Z,73.16
2017-08-09T03:42:25.635Z,72.88
2017-08-09T03:43:26.026Z,72.97
2017-08-09T03:44:25.619Z,72.88
2017-08-09T03:45:25.625Z,72.88
2017-08-09T03:46:25.619Z,73.35
2017-08-09T03:47:25.607Z,73.16
2017-08-09T03:48:25.600Z,73.16
2017-08-09T03:49:25.941Z,73.16
2017-08-09T03:50:25.572Z,73.16
2017-08-09T03:51:25.571Z,73.16
2017-08-09T03:52:25.571Z,73.16
2017-08-09T03:53:25.553Z,73.07
2017-08-09T03:54:25.550Z,73.07
2017-08-09T03:55:25.859Z,73.07
2017-08-09T03:56:25.523Z,72.88
2017-08-09T03:57:25.513Z,73.07
2017-08-09T03:58:25.503Z,72.78
2017-08-09T03:59:25.506Z,72.88
2017-08-09T04:00:25.500Z,72.97
2017-08-09T04:01:25.859Z,73.26
2017-08-09T04:02:25.481Z,72.88
2017-08-09T04:03:25.476Z,73.07
2017-08-09T04:04:25.463Z,72.88
2017-08-09T04:05:25.447Z,73.07
2017-08-09T04:06:25.434Z,73.16
2017-08-09T04:07:25.834Z,73.26
2017-08-09T04:08:25.422Z,73.16
2017-08-09T04:09:25.421Z,73.16
2017-08-09T04:10:25.405Z,73.26
2017-08-09T04:11:25.395Z,73.45
2017-08-09T04:12:25.397Z,73.45
2017-08-09T04:13:25.851Z,73.35
2017-08-09T04:14:25.381Z,73.07
2017-08-09T04:15:25.364Z,73.07
2017-08-09T04:16:25.358Z,73.26
2017-08-09T04:17:25.364Z,73.65
2017-08-09T04:18:25.344Z,72.97
2017-08-09T04:19:25.547Z,73.16
2017-08-09T04:20:25.332Z,72.97
2017-08-09T04:21:25.330Z,72.78
2017-08-09T04:22:25.304Z,73.16
2017-08-09T04:23:25.319Z,73.65
2017-08-09T04:24:25.298Z,73.35
2017-08-09T04:25:25.586Z,73.65
2017-08-09T04:26:25.276Z,73.45
2017-08-09T04:27:25.279Z,73.55
2017-08-09T04:28:25.264Z,73.35
2017-08-09T04:29:25.256Z,73.65
2017-08-09T04:30:25.236Z,73.65
2017-08-09T04:31:25.278Z,73.65
2017-08-09T04:32:25.220Z,73.35
2017-08-09T04:33:25.588Z,73.55
2017-08-09T04:34:25.224Z,73.45
2017-08-09T04:35:25.196Z,73.45
2017-08-09T04:36:25.184Z,73.65
2017-08-09T04:37:25.194Z,73.26
2017-08-09T04:38:25.166Z,73.35
2017-08-09T04:39:25.535Z,73.65
2017-08-09T04:40:25.155Z,73.35
2017-08-09T04:41:25.162Z,73.45
2017-08-09T04:42:25.135Z,73.55
2017-08-09T04:43:25.127Z,73.16
2017-08-09T04:44:25.131Z,73.26
2017-08-09T04:45:25.417Z,73.35
2017-08-09T04:46:25.122Z,73.26
2017-08-09T04:47:25.105Z,73.45
2017-08-09T04:48:25.087Z,73.07
2017-08-09T04:49:25.092Z,73.07
2017-08-09T04:50:25.068Z,73.07
2017-08-09T04:51:25.272Z,73.07
2017-08-09T04:52:25.056Z,73.45
2017-08-09T04:53:25.052Z,72.68
2017-08-09T04:54:25.037Z,73.16
2017-08-09T04:55:25.041Z,73.26
2017-08-09T04:56:25.033Z,73.16
2017-08-09T04:57:25.318Z,72.88
2017-08-09T04:58:25.004Z,72.97
2017-08-09T04:59:24.989Z,72.88
2017-08-09T05:00:24.995Z,72.97
2017-08-09T05:01:24.983Z,72.97
2017-08-09T05:02:24.969Z,72.97
2017-08-09T05:03:25.328Z,72.97
2017-08-09T05:04:24.968Z,72.97
2017-08-09T05:05:24.955Z,72.88
2017-08-09T05:06:24.939Z,72.97
2017-08-09T05:07:24.922Z,72.97
2017-08-09T05:08:24.929Z,72.88
2017-08-09T05:09:25.369Z,72.88
2017-08-09T05:10:24.902Z,72.97
2017-08-09T05:11:24.904Z,72.97
2017-08-09T05:12:24.885Z,73.07
2017-08-09T05:13:24.874Z,73.45
2017-08-09T05:14:24.869Z,72.97
2017-08-09T05:15:25.083Z,73.45
2017-08-09T05:16:24.861Z,73.35
2017-08-09T05:17:24.853Z,73.26
2017-08-09T05:18:24.848Z,73.65
2017-08-09T05:19:24.848Z,74.12
2017-08-09T05:20:24.835Z,74.60
2017-08-09T05:21:25.122Z,74.89
2017-08-09T05:22:24.803Z,74.85
2017-08-09T05:23:24.804Z,74.95
2017-08-09T05:24:24.792Z,75.14
2017-08-09T05:25:24.792Z,75.81
2017-08-09T05:26:24.780Z,75.62
2017-08-09T05:27:25.233Z,76.00
2017-08-09T05:28:24.747Z,75.62
2017-08-09T05:29:24.754Z,75.56
2017-08-09T05:30:24.747Z,76.04
2017-08-09T05:31:24.737Z,75.95
2017-08-09T05:32:24.726Z,76.04
2017-08-09T05:33:24.753Z,76.62
2017-08-09T05:34:24.700Z,75.85
2017-08-09T05:35:25.070Z,76.23
2017-08-09T05:36:24.702Z,76.62
2017-08-09T05:37:24.688Z,75.65
2017-08-09T05:38:24.677Z,76.04
2017-08-09T05:39:24.667Z,75.85
2017-08-09T05:40:24.664Z,76.14
2017-08-09T05:41:24.689Z,76.23
2017-08-09T05:42:24.639Z,75.75
2017-08-09T05:43:24.649Z,76.14
2017-08-09T05:44:24.621Z,75.65
2017-08-09T05:45:24.613Z,76.04
2017-08-09T05:46:24.928Z,76.04
2017-08-09T05:47:24.597Z,75.65
2017-08-09T05:48:24.595Z,76.42
2017-08-09T05:49:24.581Z,76.14
2017-08-09T05:50:24.575Z,76.04
2017-08-09T05:51:24.564Z,75.37
2017-08-09T05:52:24.580Z,76.42
2017-08-09T05:53:24.548Z,75.95
2017-08-09T05:54:24.544Z,75.95
2017-08-09T05:55:24.526Z,76.71
2017-08-09T05:56:24.540Z,76.62
2017-08-09T05:57:24.528Z,76.62
2017-08-09T05:58:24.535Z,77.19
2017-08-09T05:59:24.510Z,77.58
2017-08-09T06:00:24.494Z,77.86
2017-08-09T06:01:24.911Z,78.20
2017-08-09T06:02:24.470Z,77.82
2017-08-09T06:03:24.466Z,78.20
2017-08-09T06:04:24.465Z,78.20
2017-08-09T06:05:24.457Z,78.20
2017-08-09T06:06:24.452Z,78.72
2017-08-09T06:07:24.728Z,78.78
2017-08-09T06:08:24.422Z,79.26
2017-08-09T06:09:24.416Z,79.45
2017-08-09T06:10:24.407Z,79.16
2017-08-09T06:11:24.395Z,78.88
2017-08-09T06:12:24.402Z,78.88
2017-08-09T06:13:24.694Z,78.88
2017-08-09T06:14:24.373Z,79.26
2017-08-09T06:15:24.362Z,78.88
2017-08-09T06:16:24.363Z,79.07
2017-08-09T06:17:24.361Z,79.26
2017-08-09T06:18:24.361Z,79.36
2017-08-09T06:19:24.714Z,78.78
2017-08-09T06:20:24.342Z,79.83
2017-08-09T06:21:24.333Z,79.64
2017-08-09T06:22:24.307Z,79.83
2017-08-09T06:23:24.299Z,79.55
2017-08-09T06:24:24.310Z,79.64
2017-08-09T06:25:24.688Z,79.93
2017-08-09T06:26:24.290Z,79.55
2017-08-09T06:27:24.264Z,79.64
2017-08-09T06:28:24.260Z,80.12
2017-08-09T06:29:24.266Z,79.55
2017-08-09T06:30:24.264Z,78.69
2017-08-09T06:31:24.441Z,79.26
2017-08-09T06:32:24.231Z,79.26
2017-08-09T06:33:24.233Z,79.55
2017-08-09T06:34:24.224Z,79.07
2017-08-09T06:35:24.203Z,79.74
2017-08-09T06:36:24.213Z,79.74
2017-08-09T06:37:24.607Z,79.74
2017-08-09T06:38:24.187Z,79.26
2017-08-09T06:39:24.183Z,79.36
2017-08-09T06:40:24.159Z,79.55
2017-08-09T06:41:24.154Z,79.64
2017-08-09T06:42:24.161Z,79.93
2017-08-09T06:43:24.609Z,79.83
2017-08-09T06:44:24.137Z,80.03
2017-08-09T06:45:24.125Z,80.12
2017-08-09T06:46:24.121Z,79.83
2017-08-09T06:47:24.103Z,79.45
2017-08-09T06:48:24.110Z,79.97
2017-08-09T06:49:24.461Z,80.16
2017-08-09T06:50:24.184Z,80.16
2017-08-09T06:51:24.844Z,79.59
2017-08-09T06:52:24.905Z,80.16
2017-08-09T06:53:24.075Z,81.41
2017-08-09T06:54:24.069Z,79.39
2017-08-09T06:55:29.462Z,79.30
2017-08-09T06:56:24.835Z,80.16
2017-08-09T06:57:24.605Z,79.78
2017-08-09T06:58:24.489Z,79.49
2017-08-09T06:59:24.789Z,79.49
2017-08-09T07:00:24.269Z,79.49
2017-08-09T07:01:25.477Z,79.11
2017-08-09T07:02:24.619Z,78.34
2017-08-09T07:03:24.788Z,78.63
2017-08-09T07:04:24.781Z,79.21
2017-08-09T07:05:24.737Z,79.30
2017-08-09T07:06:24.646Z,78.82
2017-08-09T07:07:24.462Z,79.01
2017-08-09T07:08:23.939Z,78.63
2017-08-09T07:09:25.004Z,78.34
2017-08-09T07:10:24.585Z,78.82
2017-08-09T07:11:24.682Z,79.30
2017-08-09T07:12:24.548Z,79.11
2017-08-09T07:13:26.578Z,79.49
2017-08-09T07:14:23.896Z,78.44
2017-08-09T07:15:23.959Z,78.72
2017-08-09T07:16:24.408Z,78.53
2017-08-09T07:17:24.405Z,78.72
2017-08-09T07:18:24.392Z,78.25
2017-08-09T07:19:25.304Z,78.05
2017-08-09T07:20:23.920Z,78.15
2017-08-09T07:21:25.441Z,77.95
2017-08-09T07:22:24.553Z,78.25
2017-08-09T07:23:23.838Z,78.72
2017-08-09T07:24:23.809Z,78.63
2017-08-09T07:25:25.145Z,78.72
2017-08-09T07:26:24.411Z,78.92
2017-08-09T07:27:24.019Z,78.05
2017-08-09T07:28:24.110Z,78.53
2017-08-09T07:29:24.139Z,78.72
2017-08-09T07:30:25.097Z,79.07
2017-08-09T07:31:24.160Z,78.78
2017-08-09T07:32:23.963Z,79.16
2017-08-09T07:33:23.910Z,78.97
2017-08-09T07:34:24.545Z,79.07
2017-08-09T07:35:23.787Z,79.07
2017-08-09T07:36:24.079Z,79.26
2017-08-09T07:37:23.713Z,79.36
2017-08-09T07:38:23.705Z,79.21
2017-08-09T07:39:23.694Z,78.97
2017-08-09T07:40:23.691Z,78.53
2017-08-09T07:41:23.691Z,78.59
2017-08-09T07:42:24.093Z,78.59
2017-08-09T07:43:23.667Z,79.26
2017-08-09T07:44:23.656Z,78.97
2017-08-09T07:45:23.634Z,78.69
2017-08-09T07:46:23.639Z,79.26
2017-08-09T07:47:23.622Z,78.88
2017-08-09T07:48:23.650Z,79.07
2017-08-09T07:49:23.614Z,79.26
2017-08-09T07:50:23.594Z,79.16
2017-08-09T07:51:23.591Z,78.59
2017-08-09T07:52:23.592Z,78.59
2017-08-09T07:53:23.571Z,78.69
2017-08-09T07:54:23.946Z,78.97
2017-08-09T07:55:23.564Z,79.26
2017-08-09T07:56:23.553Z,79.16
2017-08-09T07:57:23.536Z,79.64
2017-08-09T07:58:23.543Z,79.41
2017-08-09T07:59:23.535Z,79.60
2017-08-09T08:00:23.836Z,79.41
2017-08-09T08:01:23.505Z,79.45
2017-08-09T08:02:23.489Z,79.41
2017-08-09T08:03:23.488Z,79.70
2017-08-09T08:04:23.487Z,80.08
2017-08-09T08:05:23.481Z,79.80
2017-08-09T08:06:23.687Z,80.18
2017-08-09T08:07:23.462Z,79.70
2017-08-09T08:08:23.445Z,79.89
2017-08-09T08:09:23.443Z,80.08
2017-08-09T08:10:23.423Z,80.47
2017-08-09T08:11:23.424Z,80.56
2017-08-09T08:12:23.432Z,80.08
2017-08-09T08:13:23.399Z,80.47
2017-08-09T08:14:23.388Z,80.47
2017-08-09T08:15:23.396Z,80.56
2017-08-09T08:16:23.375Z,81.13
2017-08-09T08:17:23.736Z,80.76
2017-08-09T08:18:23.365Z,80.85
2017-08-09T08:19:23.361Z,81.13
2017-08-09T08:20:23.350Z,81.23
2017-08-09T08:21:23.335Z,81.23
2017-08-09T08:22:23.325Z,81.18
2017-08-09T08:23:23.535Z,80.85
2017-08-09T08:24:23.328Z,81.18
2017-08-09T08:25:23.299Z,81.81
2017-08-09T08:26:23.289Z,81.04
2017-08-09T08:27:23.284Z,81.18
2017-08-09T08:28:23.291Z,81.66
2017-08-09T08:29:23.722Z,81.71
2017-08-09T08:30:24.022Z,81.66
2017-08-09T08:31:24.067Z,81.46
2017-08-09T08:32:26.790Z,81.46
2017-08-09T08:33:23.472Z,81.18
2017-08-09T08:34:24.891Z,80.70
2017-08-09T08:35:24.723Z,80.89
2017-08-09T08:36:23.960Z,80.79
2017-08-09T08:37:23.769Z,81.37
2017-08-09T08:38:23.820Z,80.89
2017-08-09T08:39:23.677Z,81.08
2017-08-09T08:40:23.184Z,81.27
2017-08-09T08:41:23.676Z,81.37
2017-08-09T08:42:23.953Z,81.27
2017-08-09T08:43:25.857Z,80.79
2017-08-09T08:44:23.466Z,79.93
2017-08-09T08:45:23.139Z,78.59
2017-08-09T08:46:23.136Z,78.88
2017-08-09T08:47:24.315Z,79.16
2017-08-09T08:48:23.881Z,78.40
2017-08-09T08:49:23.198Z,78.97
2017-08-09T08:50:23.423Z,78.72
2017-08-09T08:51:23.082Z,78.53
2017-08-09T08:52:23.315Z,77.76
2017-08-09T08:53:23.169Z,78.05
2017-08-09T08:54:23.893Z,77.48
2017-08-09T08:55:23.773Z,77.19
2017-08-09T08:56:23.798Z,76.52
2017-08-09T08:57:23.719Z,76.04
2017-08-09T08:58:23.866Z,75.46
2017-08-09T08:59:23.520Z,75.89
2017-08-09T09:00:23.488Z,76.07
2017-08-09T09:01:23.637Z,76.23
2017-08-09T09:02:23.636Z,75.08
2017-08-09T09:03:23.732Z,73.93
2017-08-09T09:04:25.494Z,74.02
2017-08-09T09:05:23.416Z,73.65
2017-08-09T09:06:23.204Z,73.93
2017-08-09T09:07:22.966Z,74.44
2017-08-09T09:08:22.945Z,74.73
2017-08-09T09:09:22.957Z,73.97
2017-08-09T09:10:23.307Z,74.26
2017-08-09T09:11:23.730Z,74.35
2017-08-09T09:12:23.691Z,74.35
2017-08-09T09:13:23.482Z,72.72
2017-08-09T09:14:23.719Z,72.05
2017-08-09T09:15:23.557Z,73.10
2017-08-09T09:16:22.927Z,73.10
2017-08-09T09:17:23.649Z,73.68
2017-08-09T09:18:23.991Z,73.58
2017-08-09T09:19:23.622Z,73.49
2017-08-09T09:20:23.587Z,72.33
2017-08-09T09:21:23.335Z,71.19
2017-08-09T09:22:23.550Z,70.90
2017-08-09T09:23:23.565Z,70.42
2017-08-09T09:24:23.381Z,70.70
2017-08-09T09:25:22.975Z,69.26
2017-08-09T09:26:23.514Z,69.46
2017-08-09T09:27:23.602Z,69.46
2017-08-09T09:28:22.885Z,70.32
2017-08-09T09:29:22.902Z,71.09
2017-08-09T09:30:22.810Z,69.74
2017-08-09T09:31:22.781Z,68.69
2017-08-09T09:32:22.762Z,67.92
2017-08-09T09:33:22.755Z,67.83
2017-08-09T09:34:22.759Z,68.69
2017-08-09T09:35:23.059Z,69.46
2017-08-09T09:36:22.732Z,69.65
2017-08-09T09:37:22.751Z,69.36
2017-08-09T09:38:22.730Z,69.74
2017-08-09T09:39:22.707Z,70.42
2017-08-09T09:40:22.699Z,70.61
2017-08-09T09:41:23.006Z,69.93
2017-08-09T09:42:22.694Z,69.59
2017-08-09T09:43:22.683Z,70.84
2017-08-09T09:44:22.680Z,68.88
2017-08-09T09:45:22.668Z,69.17
2017-08-09T09:46:22.654Z,69.46
2017-08-09T09:47:22.985Z,68.15
2017-08-09T09:48:22.648Z,68.73
2017-08-09T09:49:22.644Z,68.53
2017-08-09T09:50:22.636Z,67.19
2017-08-09T09:51:22.617Z,68.73
2017-08-09T09:52:22.633Z,67.96
2017-08-09T09:53:22.632Z,67.29
2017-08-09T09:54:22.597Z,66.90
2017-08-09T09:55:22.590Z,66.80
2017-08-09T09:56:22.579Z,68.05
2017-08-09T09:57:22.941Z,69.01
2017-08-09T09:58:22.567Z,69.68
2017-08-09T09:59:22.559Z,69.53
2017-08-09T10:00:22.551Z,68.18
2017-08-09T10:01:22.548Z,66.71
2017-08-09T10:02:22.554Z,68.05
2017-08-09T10:03:22.934Z,67.96
2017-08-09T10:04:22.537Z,68.24
2017-08-09T10:05:22.528Z,68.37
2017-08-09T10:06:22.530Z,67.76
2017-08-09T10:07:22.500Z,67.67
2017-08-09T10:08:22.503Z,67.96
2017-08-09T10:09:22.856Z,68.73
2017-08-09T10:10:22.493Z,68.44
2017-08-09T10:11:22.473Z,68.15
2017-08-09T10:12:22.465Z,67.86
2017-08-09T10:13:22.472Z,68.15
2017-08-09T10:14:22.460Z,68.15
2017-08-09T10:15:22.748Z,68.53
2017-08-09T10:16:22.454Z,69.05
2017-08-09T10:17:22.427Z,68.66
2017-08-09T10:18:22.426Z,67.51
2017-08-09T10:19:22.428Z,69.34
2017-08-09T10:20:22.420Z,67.61
2017-08-09T10:21:22.434Z,66.93
2017-08-09T10:22:22.404Z,66.74
2017-08-09T10:23:22.395Z,67.41
2017-08-09T10:24:22.376Z,66.07
2017-08-09T10:25:22.379Z,66.64
2017-08-09T10:26:22.663Z,66.84
2017-08-09T10:27:22.372Z,64.82
2017-08-09T10:28:22.352Z,63.28
2017-08-09T10:29:22.362Z,63.48
2017-08-09T10:30:22.335Z,62.81
2017-08-09T10:31:22.339Z,61.94
2017-08-09T10:32:22.631Z,60.69
2017-08-09T10:33:22.314Z,61.36
2017-08-09T10:34:22.312Z,60.69
2017-08-09T10:35:22.314Z,62.04
2017-08-09T10:36:22.299Z,61.84
2017-08-09T10:37:22.311Z,61.84
2017-08-09T10:38:22.508Z,62.04
2017-08-09T10:39:22.275Z,61.46
2017-08-09T10:40:22.282Z,62.90
2017-08-09T10:41:22.275Z,62.99
2017-08-09T10:42:22.252Z,63.57
2017-08-09T10:43:22.257Z,63.86
2017-08-09T10:44:22.457Z,63.86
2017-08-09T10:45:22.235Z,63.38
2017-08-09T10:46:22.224Z,62.81
2017-08-09T10:47:22.224Z,63.38
2017-08-09T10:48:22.226Z,62.55
2017-08-09T10:49:22.232Z,62.74
2017-08-09T10:50:22.647Z,63.22
2017-08-09T10:51:22.191Z,63.51
2017-08-09T10:52:22.189Z,62.93
2017-08-09T10:53:22.189Z,61.78
2017-08-09T10:54:22.191Z,62.55
2017-08-09T10:55:22.183Z,62.26
2017-08-09T10:56:22.508Z,60.82
2017-08-09T10:57:22.151Z,60.53
2017-08-09T10:58:22.155Z,61.20
2017-08-09T10:59:22.149Z,61.68
2017-08-09T11:00:22.136Z,61.87
2017-08-09T11:01:22.133Z,63.22
2017-08-09T11:02:22.152Z,63.51
2017-08-09T11:03:22.122Z,62.29
2017-08-09T11:04:22.113Z,61.14
2017-08-09T11:05:22.097Z,61.71
2017-08-09T11:06:22.512Z,60.37
2017-08-09T11:07:22.086Z,61.52
2017-08-09T11:08:22.085Z,61.52
2017-08-09T11:09:22.073Z,61.81
2017-08-09T11:10:22.076Z,62.58
2017-08-09T11:11:22.075Z,62.48
2017-08-09T11:12:22.087Z,62.68
2017-08-09T11:13:22.060Z,61.81
2017-08-09T11:14:22.049Z,61.14
2017-08-09T11:15:22.029Z,59.69
2017-08-09T11:16:22.036Z,60.46
2017-08-09T11:17:22.064Z,60.75
2017-08-09T11:18:22.024Z,61.71
2017-08-09T11:19:22.005Z,60.37
2017-08-09T11:20:22.012Z,60.08
2017-08-09T11:21:22.005Z,60.08
2017-08-09T11:22:22.474Z,61.91
2017-08-09T11:23:21.977Z,61.71
2017-08-09T11:24:21.971Z,59.99
2017-08-09T11:25:21.976Z,61.07
2017-08-09T11:26:21.964Z,59.53
2017-08-09T11:27:21.970Z,60.11
2017-08-09T11:28:22.327Z,59.92
2017-08-09T11:29:21.954Z,60.69
2017-08-09T11:30:21.954Z,60.24
2017-08-09T11:31:21.927Z,59.47
2017-08-09T11:32:21.937Z,59.94
2017-08-09T11:33:21.918Z,59.94
2017-08-09T11:34:22.381Z,58.40
2017-08-09T11:35:21.916Z,58.12
2017-08-09T11:36:21.916Z,57.25
2017-08-09T11:37:21.911Z,58.22
2017-08-09T11:38:21.892Z,59.75
2017-08-09T11:39:21.907Z,57.64
2017-08-09T11:40:22.324Z,56.29
2017-08-09T11:41:21.891Z,56.96
2017-08-09T11:42:21.870Z,57.47
2017-08-09T11:43:21.861Z,57.28
2017-08-09T11:44:21.871Z,56.22
2017-08-09T11:45:21.849Z,55.74
2017-08-09T11:46:22.313Z,55.65
2017-08-09T11:47:21.846Z,56.80
2017-08-09T11:48:21.841Z,56.51
2017-08-09T11:49:21.845Z,56.29
2017-08-09T11:50:21.826Z,57.86
2017-08-09T11:51:21.819Z,56.41
2017-08-09T11:52:22.223Z,57.28
2017-08-09T11:53:21.813Z,58.72
2017-08-09T11:54:21.816Z,58.82
2017-08-09T11:55:21.796Z,58.05
2017-08-09T11:56:21.793Z,58.15
2017-08-09T11:57:21.799Z,57.95
2017-08-09T11:58:22.111Z,57.67
2017-08-09T11:59:21.789Z,56.70
2017-08-09T12:00:21.773Z,56.03
2017-08-09T12:01:21.775Z,56.51
2017-08-09T12:02:21.768Z,57.40
2017-08-09T12:03:21.754Z,57.02
2017-08-09T12:04:22.045Z,55.96
2017-08-09T12:05:21.760Z,55.38
2017-08-09T12:06:21.740Z,55.41
2017-08-09T12:07:21.746Z,56.27
2017-08-09T12:08:21.752Z,54.25
2017-08-09T12:09:21.723Z,52.33
2017-08-09T12:10:22.167Z,52.42
2017-08-09T12:11:21.714Z,51.75
2017-08-09T12:12:21.716Z,53.09
2017-08-09T12:13:21.711Z,51.75
2017-08-09T12:14:21.720Z,52.52
2017-08-09T12:15:21.706Z,53.29
2017-08-09T12:16:22.147Z,53.80
2017-08-09T12:17:21.691Z,53.89
2017-08-09T12:18:21.697Z,52.25
2017-08-09T12:19:21.679Z,52.64
2017-08-09T12:20:21.677Z,53.13
2017-08-09T12:21:21.683Z,54.18
2017-08-09T12:22:22.050Z,51.97
2017-08-09T12:23:21.665Z,52.55
2017-08-09T12:24:21.673Z,50.62
2017-08-09T12:25:21.666Z,50.52
2017-08-09T12:26:21.662Z,50.90
2017-08-09T12:27:21.662Z,52.04
2017-08-09T12:28:22.016Z,53.03
2017-08-09T12:29:21.638Z,52.52
2017-08-09T12:30:21.642Z,53.29
2017-08-09T12:31:21.641Z,53.58
2017-08-09T12:32:21.636Z,51.84
2017-08-09T12:33:21.617Z,51.82
2017-08-09T12:34:21.655Z,53.07
2017-08-09T12:35:21.614Z,54.03
2017-08-09T12:36:21.601Z,52.97
2017-08-09T12:37:21.599Z,52.97
2017-08-09T12:38:21.593Z,52.30
2017-08-09T12:39:21.639Z,51.70
2017-08-09T12:40:21.587Z,53.07
2017-08-09T12:41:21.575Z,54.52
2017-08-09T12:42:21.583Z,54.42
2017-08-09T12:43:21.568Z,54.61
2017-08-09T12:44:21.944Z,55.96
2017-08-09T12:45:21.681Z,56.82
2017-08-09T12:46:21.571Z,55.67
2017-08-09T12:47:21.569Z,52.40
2017-08-09T12:48:21.566Z,53.84
2017-08-09T12:49:21.551Z,53.19
2017-08-09T12:50:21.923Z,54.16
2017-08-09T12:51:21.538Z,54.64
2017-08-09T12:52:21.538Z,53.00